Portada
METAR-TAF:

METAR-TAF

Aeroports :

Aeroport d'Eindhoven

Eindhoven, Països Baixos

latitud: 51-27N, longitud: 005-25E, altitud: 23 m

Observació

L'informe es va fer fa 26 minuts, a les 18:55 UTC
Vent 8 kt del Est/Nord-Est, variant entre Nord/Nord-Est i Est
Temperatura 21°C
Humitat 30%
Pressió 1023 hPa
Visibilitat 10 km o més

METAR: EHEH 291855Z AUTO 06008KT 020V090 9999 NCD 21/03 Q1023 BLU

Hora: 21:21 (19:21 UTC)

Pronòstic

L'informe es va fer fa 1 hora i 59 minuts, a les 17:22 UTC
Pronòstic vàlid del 29 a les 18 UTC al 30 a les 24 UTC
Vent 6 kt del Est/Nord-Est
Visibilitat 10 km o més
sense núvols per sota de 1500 mi sense presència de cumulonimbus.
Probabilitat 30% :
Temporalment
l' 30 a les 10 UTC al 30 a les 18 UTC
Vent 10 kt del Est/Nord-Est amb ràfegues de 20 kt

TAF: EHEH 291722Z 2918/3024 06006KT CAVOK PROB30 TEMPO 3010/3018 07010G20KT

Observacions i pronòstics meteorològics de més de 4000 aeroports (METAR i TAF).

Les estacions disponibles són els punts grocs i vermells al mapa.

Posi el ratolí al punt desitjat per veure el nom de l'estació.

Feu clic per veure les observacions i els pronòstics meteorològics.

Per canviar el mapa: feu clic els botons verds amb una creu de color negre per apropar; al botó verd amb un guió per allunyar la imatge; o en les fletxes verdes per a mapes adjacents.


METAR-TAF: